Aviation Digital Data Service (ADDS)

Output produced by TAFs form (2021 UTC 28 May 2017)
found at http://aviationweather.gov/adds/tafs/
 
KEGE 281740Z 2818/2918 VRB03KT P6SM FEW250 
     FM282300 30007KT P6SM FEW150 
     FM290300 04004KT P6SM FEW250